sensor_id;sensor_type;location;lat;lon;timestamp;temperature;humidity
35240;DHT22;21376;50.954;4.716;2022-10-17T00:07:43;15.20;99.90
35240;DHT22;21376;50.954;4.716;2022-10-17T00:10:08;15.20;99.90
35240;DHT22;21376;50.954;4.716;2022-10-17T00:18:09;15.40;99.90
35240;DHT22;21376;50.954;4.716;2022-10-17T00:20:40;15.40;99.90
35240;DHT22;21376;50.954;4.716;2022-10-17T00:23:09;15.40;99.90
35240;DHT22;21376;50.954;4.716;2022-10-17T00:25:44;15.40;99.90
35240;DHT22;21376;50.954;4.716;2022-10-17T00:30:38;15.50;99.90
35240;DHT22;21376;50.954;4.716;2022-10-17T00:38:04;15.60;99.90
35240;DHT22;21376;50.954;4.716;2022-10-17T00:40:33;15.70;99.90
35240;DHT22;21376;50.954;4.716;2022-10-17T00:45:31;15.70;99.90
35240;DHT22;21376;50.954;4.716;2022-10-17T00:48:01;15.70;99.90
35240;DHT22;21376;50.954;4.716;2022-10-17T00:53:29;15.70;99.90
35240;DHT22;21376;50.954;4.716;2022-10-17T00:55:58;15.60;99.90
35240;DHT22;21376;50.954;4.716;2022-10-17T00:58:25;15.90;99.90
35240;DHT22;21376;50.954;4.716;2022-10-17T01:00:54;15.90;99.90
35240;DHT22;21376;50.954;4.716;2022-10-17T01:03:19;16.00;99.90
35240;DHT22;21376;50.954;4.716;2022-10-17T01:05:48;16.20;99.90
35240;DHT22;21376;50.954;4.716;2022-10-17T01:13:41;16.10;99.90
35240;DHT22;21376;50.954;4.716;2022-10-17T01:21:54;16.30;99.90
35240;DHT22;21376;50.954;4.716;2022-10-17T01:33:16;16.20;99.90
35240;DHT22;21376;50.954;4.716;2022-10-17T01:38:25;16.40;99.90
35240;DHT22;21376;50.954;4.716;2022-10-17T01:43:57;16.10;99.90
35240;DHT22;21376;50.954;4.716;2022-10-17T01:46:27;16.00;99.90
35240;DHT22;21376;50.954;4.716;2022-10-17T01:48:59;16.00;99.90
35240;DHT22;21376;50.954;4.716;2022-10-17T02:00:26;16.40;99.90
35240;DHT22;21376;50.954;4.716;2022-10-17T02:02:59;16.50;99.90
35240;DHT22;21376;50.954;4.716;2022-10-17T02:05:30;16.60;99.90
35240;DHT22;21376;50.954;4.716;2022-10-17T02:08:00;16.60;99.90
35240;DHT22;21376;50.954;4.716;2022-10-17T02:34:17;16.80;99.90
35240;DHT22;21376;50.954;4.716;2022-10-17T02:36:46;16.90;99.90
35240;DHT22;21376;50.954;4.716;2022-10-17T02:39:31;16.90;99.90
35240;DHT22;21376;50.954;4.716;2022-10-17T02:41:59;16.70;99.90
35240;DHT22;21376;50.954;4.716;2022-10-17T02:44:30;16.80;99.90
35240;DHT22;21376;50.954;4.716;2022-10-17T02:49:56;16.90;99.90
35240;DHT22;21376;50.954;4.716;2022-10-17T02:52:36;16.80;99.90
35240;DHT22;21376;50.954;4.716;2022-10-17T02:55:08;16.80;99.90
35240;DHT22;21376;50.954;4.716;2022-10-17T03:11:36;17.10;99.90
35240;DHT22;21376;50.954;4.716;2022-10-17T03:16:33;17.20;99.90
35240;DHT22;21376;50.954;4.716;2022-10-17T03:21:30;17.20;99.90
35240;DHT22;21376;50.954;4.716;2022-10-17T03:23:58;17.30;99.90
35240;DHT22;21376;50.954;4.716;2022-10-17T03:26:26;17.30;99.90
35240;DHT22;21376;50.954;4.716;2022-10-17T03:31:28;17.30;99.90
35240;DHT22;21376;50.954;4.716;2022-10-17T03:34:00;17.40;99.90
35240;DHT22;21376;50.954;4.716;2022-10-17T03:38:58;17.40;99.90
35240;DHT22;21376;50.954;4.716;2022-10-17T03:44:03;17.30;99.90
35240;DHT22;21376;50.954;4.716;2022-10-17T03:46:31;17.30;99.90
35240;DHT22;21376;50.954;4.716;2022-10-17T03:49:00;17.30;99.90
35240;DHT22;21376;50.954;4.716;2022-10-17T03:51:39;17.40;99.90
35240;DHT22;21376;50.954;4.716;2022-10-17T03:54:08;17.30;99.90
35240;DHT22;21376;50.954;4.716;2022-10-17T03:56:35;17.30;99.90
35240;DHT22;21376;50.954;4.716;2022-10-17T04:03:58;17.30;99.90
35240;DHT22;21376;50.954;4.716;2022-10-17T04:06:28;17.40;99.90
35240;DHT22;21376;50.954;4.716;2022-10-17T04:08:54;17.40;99.90
35240;DHT22;21376;50.954;4.716;2022-10-17T04:11:21;17.40;99.90
35240;DHT22;21376;50.954;4.716;2022-10-17T04:27:21;17.50;99.90
35240;DHT22;21376;50.954;4.716;2022-10-17T04:29:47;17.40;99.90
35240;DHT22;21376;50.954;4.716;2022-10-17T04:32:12;17.40;99.90
35240;DHT22;21376;50.954;4.716;2022-10-17T04:34:42;17.50;99.90
35240;DHT22;21376;50.954;4.716;2022-10-17T04:37:11;17.50;99.90
35240;DHT22;21376;50.954;4.716;2022-10-17T04:39:38;17.50;99.90
35240;DHT22;21376;50.954;4.716;2022-10-17T04:44:34;17.40;99.90
35240;DHT22;21376;50.954;4.716;2022-10-17T04:49:32;17.40;99.90
35240;DHT22;21376;50.954;4.716;2022-10-17T04:54:32;17.40;99.90
35240;DHT22;21376;50.954;4.716;2022-10-17T04:57:01;17.50;99.90
35240;DHT22;21376;50.954;4.716;2022-10-17T04:59:30;17.50;99.90
35240;DHT22;21376;50.954;4.716;2022-10-17T05:01:59;17.40;99.90
35240;DHT22;21376;50.954;4.716;2022-10-17T05:06:56;17.40;99.90
35240;DHT22;21376;50.954;4.716;2022-10-17T05:12:11;17.50;99.90
35240;DHT22;21376;50.954;4.716;2022-10-17T05:14:41;17.50;99.90
35240;DHT22;21376;50.954;4.716;2022-10-17T05:17:10;17.60;99.90
35240;DHT22;21376;50.954;4.716;2022-10-17T05:19:39;17.50;99.90
35240;DHT22;21376;50.954;4.716;2022-10-17T05:22:07;17.50;99.90
35240;DHT22;21376;50.954;4.716;2022-10-17T05:24:35;17.60;99.90
35240;DHT22;21376;50.954;4.716;2022-10-17T05:27:01;17.40;99.90
35240;DHT22;21376;50.954;4.716;2022-10-17T05:29:27;17.50;99.90
35240;DHT22;21376;50.954;4.716;2022-10-17T05:31:53;17.70;99.90
35240;DHT22;21376;50.954;4.716;2022-10-17T05:36:49;17.70;99.90
35240;DHT22;21376;50.954;4.716;2022-10-17T05:39:14;17.70;99.90
35240;DHT22;21376;50.954;4.716;2022-10-17T05:41:45;17.70;99.90
35240;DHT22;21376;50.954;4.716;2022-10-17T05:44:11;17.80;99.90
35240;DHT22;21376;50.954;4.716;2022-10-17T05:46:36;17.60;99.90
35240;DHT22;21376;50.954;4.716;2022-10-17T05:49:02;17.60;99.90
35240;DHT22;21376;50.954;4.716;2022-10-17T05:51:29;17.70;99.90
35240;DHT22;21376;50.954;4.716;2022-10-17T05:53:55;17.70;99.90
35240;DHT22;21376;50.954;4.716;2022-10-17T05:56:21;17.70;99.90
35240;DHT22;21376;50.954;4.716;2022-10-17T05:58:46;17.80;99.90
35240;DHT22;21376;50.954;4.716;2022-10-17T06:01:13;17.80;99.90
35240;DHT22;21376;50.954;4.716;2022-10-17T06:03:38;17.80;99.90
35240;DHT22;21376;50.954;4.716;2022-10-17T06:06:05;17.90;99.90
35240;DHT22;21376;50.954;4.716;2022-10-17T06:08:31;18.00;99.90
35240;DHT22;21376;50.954;4.716;2022-10-17T06:10:58;18.00;99.90
35240;DHT22;21376;50.954;4.716;2022-10-17T06:13:24;18.10;99.90
35240;DHT22;21376;50.954;4.716;2022-10-17T06:15:49;18.10;99.90
35240;DHT22;21376;50.954;4.716;2022-10-17T06:18:15;18.10;99.90
35240;DHT22;21376;50.954;4.716;2022-10-17T06:20:41;18.20;99.90
35240;DHT22;21376;50.954;4.716;2022-10-17T06:23:06;18.20;99.90
35240;DHT22;21376;50.954;4.716;2022-10-17T06:25:32;18.10;99.90
35240;DHT22;21376;50.954;4.716;2022-10-17T06:27:57;18.20;99.90
35240;DHT22;21376;50.954;4.716;2022-10-17T06:30:23;18.20;99.90
35240;DHT22;21376;50.954;4.716;2022-10-17T06:32:50;18.10;99.90
35240;DHT22;21376;50.954;4.716;2022-10-17T06:35:16;18.20;99.90
35240;DHT22;21376;50.954;4.716;2022-10-17T06:37:41;18.20;99.90
35240;DHT22;21376;50.954;4.716;2022-10-17T06:40:07;18.10;99.90
35240;DHT22;21376;50.954;4.716;2022-10-17T06:42:34;18.10;99.90
35240;DHT22;21376;50.954;4.716;2022-10-17T06:45:03;18.30;99.90
35240;DHT22;21376;50.954;4.716;2022-10-17T06:47:33;18.40;99.90
35240;DHT22;21376;50.954;4.716;2022-10-17T06:50:02;18.30;99.90
35240;DHT22;21376;50.954;4.716;2022-10-17T06:52:27;18.40;99.90
35240;DHT22;21376;50.954;4.716;2022-10-17T06:54:56;18.40;99.90
35240;DHT22;21376;50.954;4.716;2022-10-17T06:57:22;18.40;99.90
35240;DHT22;21376;50.954;4.716;2022-10-17T06:59:48;18.50;99.90
35240;DHT22;21376;50.954;4.716;2022-10-17T07:02:13;18.30;99.90
35240;DHT22;21376;50.954;4.716;2022-10-17T07:04:41;18.20;99.90
35240;DHT22;21376;50.954;4.716;2022-10-17T07:07:08;18.20;99.90
35240;DHT22;21376;50.954;4.716;2022-10-17T07:09:33;18.30;99.90
35240;DHT22;21376;50.954;4.716;2022-10-17T07:11:59;18.50;99.90
35240;DHT22;21376;50.954;4.716;2022-10-17T07:14:25;18.80;99.90
35240;DHT22;21376;50.954;4.716;2022-10-17T07:16:58;19.10;99.90
35240;DHT22;21376;50.954;4.716;2022-10-17T07:19:24;19.20;99.90
35240;DHT22;21376;50.954;4.716;2022-10-17T07:21:51;19.10;99.90
35240;DHT22;21376;50.954;4.716;2022-10-17T07:24:17;19.10;99.90
35240;DHT22;21376;50.954;4.716;2022-10-17T07:26:43;19.20;99.90
35240;DHT22;21376;50.954;4.716;2022-10-17T07:29:10;19.40;99.90
35240;DHT22;21376;50.954;4.716;2022-10-17T07:31:36;19.40;99.90
35240;DHT22;21376;50.954;4.716;2022-10-17T07:34:02;19.40;99.90
35240;DHT22;21376;50.954;4.716;2022-10-17T07:36:27;19.40;99.90
35240;DHT22;21376;50.954;4.716;2022-10-17T07:38:54;19.10;99.90
35240;DHT22;21376;50.954;4.716;2022-10-17T07:41:20;19.00;99.90
35240;DHT22;21376;50.954;4.716;2022-10-17T07:43:46;19.00;99.90
35240;DHT22;21376;50.954;4.716;2022-10-17T07:46:12;18.80;99.90
35240;DHT22;21376;50.954;4.716;2022-10-17T07:48:37;18.80;99.90
35240;DHT22;21376;50.954;4.716;2022-10-17T07:51:06;18.90;99.90
35240;DHT22;21376;50.954;4.716;2022-10-17T07:53:38;18.70;99.90
35240;DHT22;21376;50.954;4.716;2022-10-17T07:56:05;18.80;99.90
35240;DHT22;21376;50.954;4.716;2022-10-17T07:58:31;18.60;99.90
35240;DHT22;21376;50.954;4.716;2022-10-17T08:01:03;18.40;99.90
35240;DHT22;21376;50.954;4.716;2022-10-17T08:03:29;18.40;99.90
35240;DHT22;21376;50.954;4.716;2022-10-17T08:05:59;18.60;99.90
35240;DHT22;21376;50.954;4.716;2022-10-17T08:08:25;18.50;99.90
35240;DHT22;21376;50.954;4.716;2022-10-17T08:10:54;18.70;99.90
35240;DHT22;21376;50.954;4.716;2022-10-17T08:13:21;18.50;99.90
35240;DHT22;21376;50.954;4.716;2022-10-17T08:15:46;18.60;99.90
35240;DHT22;21376;50.954;4.716;2022-10-17T08:18:13;18.50;99.90
35240;DHT22;21376;50.954;4.716;2022-10-17T08:20:39;18.40;99.90
35240;DHT22;21376;50.954;4.716;2022-10-17T08:23:07;18.30;99.90
35240;DHT22;21376;50.954;4.716;2022-10-17T08:25:33;18.30;99.90
35240;DHT22;21376;50.954;4.716;2022-10-17T08:27:58;18.30;99.90
35240;DHT22;21376;50.954;4.716;2022-10-17T08:30:24;18.40;99.90
35240;DHT22;21376;50.954;4.716;2022-10-17T08:32:49;18.50;99.90
35240;DHT22;21376;50.954;4.716;2022-10-17T08:35:17;18.40;99.90
35240;DHT22;21376;50.954;4.716;2022-10-17T08:40:27;18.20;99.90
35240;DHT22;21376;50.954;4.716;2022-10-17T08:42:59;18.00;99.90
35240;DHT22;21376;50.954;4.716;2022-10-17T08:48:32;17.90;99.90
35240;DHT22;21376;50.954;4.716;2022-10-17T08:51:04;18.00;99.90
35240;DHT22;21376;50.954;4.716;2022-10-17T08:59:11;18.10;99.90
35240;DHT22;21376;50.954;4.716;2022-10-17T09:01:48;18.20;99.90
35240;DHT22;21376;50.954;4.716;2022-10-17T09:07:21;18.10;99.90
35240;DHT22;21376;50.954;4.716;2022-10-17T09:12:40;18.30;99.90
35240;DHT22;21376;50.954;4.716;2022-10-17T09:17:57;18.40;99.90
35240;DHT22;21376;50.954;4.716;2022-10-17T09:20:29;18.50;99.90
35240;DHT22;21376;50.954;4.716;2022-10-17T09:23:12;18.40;99.90
35240;DHT22;21376;50.954;4.716;2022-10-17T09:25:43;18.30;99.90
35240;DHT22;21376;50.954;4.716;2022-10-17T09:33:27;18.40;99.90
35240;DHT22;21376;50.954;4.716;2022-10-17T09:35:58;18.40;99.90
35240;DHT22;21376;50.954;4.716;2022-10-17T09:41:12;17.90;99.90
35240;DHT22;21376;50.954;4.716;2022-10-17T09:43:42;18.00;99.90
35240;DHT22;21376;50.954;4.716;2022-10-17T09:51:33;18.30;99.90
35240;DHT22;21376;50.954;4.716;2022-10-17T09:54:06;18.40;99.90
35240;DHT22;21376;50.954;4.716;2022-10-17T09:56:55;18.60;99.90
35240;DHT22;21376;50.954;4.716;2022-10-17T09:59:33;18.70;99.90
35240;DHT22;21376;50.954;4.716;2022-10-17T10:04:34;19.00;99.90
35240;DHT22;21376;50.954;4.716;2022-10-17T10:09:34;19.20;99.90
35240;DHT22;21376;50.954;4.716;2022-10-17T10:14:49;19.30;99.90
35240;DHT22;21376;50.954;4.716;2022-10-17T10:22:33;19.30;99.90
35240;DHT22;21376;50.954;4.716;2022-10-17T10:25:15;19.40;99.90
35240;DHT22;21376;50.954;4.716;2022-10-17T10:27:44;19.30;99.90
35240;DHT22;21376;50.954;4.716;2022-10-17T10:32:59;19.20;99.90
35240;DHT22;21376;50.954;4.716;2022-10-17T10:35:36;19.10;99.90
35240;DHT22;21376;50.954;4.716;2022-10-17T10:38:03;19.00;99.90
35240;DHT22;21376;50.954;4.716;2022-10-17T10:43:45;19.10;99.90
35240;DHT22;21376;50.954;4.716;2022-10-17T10:46:21;19.20;99.90
35240;DHT22;21376;50.954;4.716;2022-10-17T10:49:00;19.30;99.90
35240;DHT22;21376;50.954;4.716;2022-10-17T10:51:31;19.30;99.90
35240;DHT22;21376;50.954;4.716;2022-10-17T10:54:07;19.30;99.90
35240;DHT22;21376;50.954;4.716;2022-10-17T10:59:52;19.50;99.90
35240;DHT22;21376;50.954;4.716;2022-10-17T11:02:57;19.70;99.90
35240;DHT22;21376;50.954;4.716;2022-10-17T11:13:36;19.60;99.90
35240;DHT22;21376;50.954;4.716;2022-10-17T11:16:22;19.70;99.90
35240;DHT22;21376;50.954;4.716;2022-10-17T11:18:51;19.70;99.90
35240;DHT22;21376;50.954;4.716;2022-10-17T11:24:11;19.40;99.90
35240;DHT22;21376;50.954;4.716;2022-10-17T11:29:42;19.50;99.90
35240;DHT22;21376;50.954;4.716;2022-10-17T11:35:04;19.90;99.90
35240;DHT22;21376;50.954;4.716;2022-10-17T11:37:39;20.00;99.90
35240;DHT22;21376;50.954;4.716;2022-10-17T11:45:54;20.20;99.90
35240;DHT22;21376;50.954;4.716;2022-10-17T11:48:26;20.10;99.90
35240;DHT22;21376;50.954;4.716;2022-10-17T11:53:27;19.80;99.90
35240;DHT22;21376;50.954;4.716;2022-10-17T11:55:57;19.80;99.90
35240;DHT22;21376;50.954;4.716;2022-10-17T12:01:20;19.60;99.90
35240;DHT22;21376;50.954;4.716;2022-10-17T12:03:51;19.30;99.90
35240;DHT22;21376;50.954;4.716;2022-10-17T12:09:28;19.10;99.90
35240;DHT22;21376;50.954;4.716;2022-10-17T12:14:45;19.20;99.90
35240;DHT22;21376;50.954;4.716;2022-10-17T12:22:53;19.30;99.90
35240;DHT22;21376;50.954;4.716;2022-10-17T12:28:15;19.00;99.90
35240;DHT22;21376;50.954;4.716;2022-10-17T12:31:04;19.00;99.90
35240;DHT22;21376;50.954;4.716;2022-10-17T12:33:38;19.00;99.90
35240;DHT22;21376;50.954;4.716;2022-10-17T12:39:39;19.10;99.90
35240;DHT22;21376;50.954;4.716;2022-10-17T12:55:18;19.40;99.90
35240;DHT22;21376;50.954;4.716;2022-10-17T13:08:33;19.00;99.90
35240;DHT22;21376;50.954;4.716;2022-10-17T13:11:03;18.90;99.90
35240;DHT22;21376;50.954;4.716;2022-10-17T13:18:57;19.40;99.90
35240;DHT22;21376;50.954;4.716;2022-10-17T13:21:28;19.40;99.90
35240;DHT22;21376;50.954;4.716;2022-10-17T13:26:49;19.60;99.90
35240;DHT22;21376;50.954;4.716;2022-10-17T13:29:18;19.60;99.90
35240;DHT22;21376;50.954;4.716;2022-10-17T13:31:55;19.70;99.90
35240;DHT22;21376;50.954;4.716;2022-10-17T13:34:24;19.90;99.90
35240;DHT22;21376;50.954;4.716;2022-10-17T13:39:54;19.90;99.90
35240;DHT22;21376;50.954;4.716;2022-10-17T13:42:29;19.70;99.90
35240;DHT22;21376;50.954;4.716;2022-10-17T13:47:48;19.90;99.90
35240;DHT22;21376;50.954;4.716;2022-10-17T13:50:24;19.90;99.90
35240;DHT22;21376;50.954;4.716;2022-10-17T13:56:16;19.80;99.90
35240;DHT22;21376;50.954;4.716;2022-10-17T14:01:48;20.10;99.90
35240;DHT22;21376;50.954;4.716;2022-10-17T14:04:17;20.30;99.90
35240;DHT22;21376;50.954;4.716;2022-10-17T14:06:44;20.50;99.90
35240;DHT22;21376;50.954;4.716;2022-10-17T14:09:23;20.50;99.90
35240;DHT22;21376;50.954;4.716;2022-10-17T14:12:05;20.30;99.90
35240;DHT22;21376;50.954;4.716;2022-10-17T14:14:37;20.20;99.90
35240;DHT22;21376;50.954;4.716;2022-10-17T14:27:55;20.20;99.90
35240;DHT22;21376;50.954;4.716;2022-10-17T14:30:35;20.00;99.90
35240;DHT22;21376;50.954;4.716;2022-10-17T14:33:21;20.00;99.90
35240;DHT22;21376;50.954;4.716;2022-10-17T14:36:00;20.10;99.90
35240;DHT22;21376;50.954;4.716;2022-10-17T14:38:27;20.20;99.90
35240;DHT22;21376;50.954;4.716;2022-10-17T14:41:12;20.30;99.90
35240;DHT22;21376;50.954;4.716;2022-10-17T14:43:42;20.30;99.90
35240;DHT22;21376;50.954;4.716;2022-10-17T14:46:16;20.50;99.90
35240;DHT22;21376;50.954;4.716;2022-10-17T14:48:42;20.40;99.90
35240;DHT22;21376;50.954;4.716;2022-10-17T14:51:17;20.30;99.90
35240;DHT22;21376;50.954;4.716;2022-10-17T14:54:30;20.30;99.90
35240;DHT22;21376;50.954;4.716;2022-10-17T14:59:06;20.30;99.90
35240;DHT22;21376;50.954;4.716;2022-10-17T15:11:35;20.60;99.90
35240;DHT22;21376;50.954;4.716;2022-10-17T15:14:07;20.60;99.90
35240;DHT22;21376;50.954;4.716;2022-10-17T15:16:38;20.50;99.90
35240;DHT22;21376;50.954;4.716;2022-10-17T15:19:07;20.50;99.90
35240;DHT22;21376;50.954;4.716;2022-10-17T15:21:33;20.30;99.90
35240;DHT22;21376;50.954;4.716;2022-10-17T15:24:03;20.00;99.90
35240;DHT22;21376;50.954;4.716;2022-10-17T15:26:34;19.90;99.90
35240;DHT22;21376;50.954;4.716;2022-10-17T15:29:03;19.90;99.90
35240;DHT22;21376;50.954;4.716;2022-10-17T15:31:35;19.80;99.90
35240;DHT22;21376;50.954;4.716;2022-10-17T15:34:03;19.70;99.90
35240;DHT22;21376;50.954;4.716;2022-10-17T15:36:34;19.30;99.90
35240;DHT22;21376;50.954;4.716;2022-10-17T15:39:00;19.30;99.90
35240;DHT22;21376;50.954;4.716;2022-10-17T15:41:30;19.30;99.90
35240;DHT22;21376;50.954;4.716;2022-10-17T15:49:17;19.50;99.90
35240;DHT22;21376;50.954;4.716;2022-10-17T15:51:46;19.50;99.90
35240;DHT22;21376;50.954;4.716;2022-10-17T15:54:15;19.40;99.90
35240;DHT22;21376;50.954;4.716;2022-10-17T15:56:41;19.20;99.90
35240;DHT22;21376;50.954;4.716;2022-10-17T15:59:15;19.20;99.90
35240;DHT22;21376;50.954;4.716;2022-10-17T16:02:00;19.20;99.90
35240;DHT22;21376;50.954;4.716;2022-10-17T16:04:26;19.10;99.90
35240;DHT22;21376;50.954;4.716;2022-10-17T16:07:03;19.20;99.90
35240;DHT22;21376;50.954;4.716;2022-10-17T16:09:32;19.20;99.90
35240;DHT22;21376;50.954;4.716;2022-10-17T16:12:02;19.30;99.90
35240;DHT22;21376;50.954;4.716;2022-10-17T16:14:28;19.30;99.90
35240;DHT22;21376;50.954;4.716;2022-10-17T16:16:53;19.20;99.90
35240;DHT22;21376;50.954;4.716;2022-10-17T16:19:19;19.30;99.90
35240;DHT22;21376;50.954;4.716;2022-10-17T16:21:47;19.20;99.90
35240;DHT22;21376;50.954;4.716;2022-10-17T16:24:12;19.20;99.90
35240;DHT22;21376;50.954;4.716;2022-10-17T16:26:38;19.10;99.90
35240;DHT22;21376;50.954;4.716;2022-10-17T16:29:06;19.10;99.90
35240;DHT22;21376;50.954;4.716;2022-10-17T16:31:34;19.10;99.90
35240;DHT22;21376;50.954;4.716;2022-10-17T16:34:00;19.10;99.90
35240;DHT22;21376;50.954;4.716;2022-10-17T16:36:27;19.10;99.90
35240;DHT22;21376;50.954;4.716;2022-10-17T16:38:52;19.00;99.90
35240;DHT22;21376;50.954;4.716;2022-10-17T16:41:20;19.00;99.90
35240;DHT22;21376;50.954;4.716;2022-10-17T16:43:47;18.90;99.90
35240;DHT22;21376;50.954;4.716;2022-10-17T16:46:25;18.90;99.90
35240;DHT22;21376;50.954;4.716;2022-10-17T16:49:03;18.70;99.90
35240;DHT22;21376;50.954;4.716;2022-10-17T16:54:41;18.60;99.90
35240;DHT22;21376;50.954;4.716;2022-10-17T16:57:06;18.60;99.90
35240;DHT22;21376;50.954;4.716;2022-10-17T16:59:33;18.50;99.90
35240;DHT22;21376;50.954;4.716;2022-10-17T17:01:59;18.50;99.90
35240;DHT22;21376;50.954;4.716;2022-10-17T17:04:25;18.60;99.90
35240;DHT22;21376;50.954;4.716;2022-10-17T17:06:52;18.50;99.90
35240;DHT22;21376;50.954;4.716;2022-10-17T17:09:17;18.40;99.90
35240;DHT22;21376;50.954;4.716;2022-10-17T17:11:46;18.20;99.90
35240;DHT22;21376;50.954;4.716;2022-10-17T17:19:49;18.30;99.90
35240;DHT22;21376;50.954;4.716;2022-10-17T17:22:20;18.20;99.90
35240;DHT22;21376;50.954;4.716;2022-10-17T17:24:46;18.30;99.90
35240;DHT22;21376;50.954;4.716;2022-10-17T17:27:12;18.30;99.90
35240;DHT22;21376;50.954;4.716;2022-10-17T17:29:40;18.10;99.90
35240;DHT22;21376;50.954;4.716;2022-10-17T17:32:26;18.10;99.90
35240;DHT22;21376;50.954;4.716;2022-10-17T17:34:52;18.20;99.90
35240;DHT22;21376;50.954;4.716;2022-10-17T17:37:18;18.10;99.90
35240;DHT22;21376;50.954;4.716;2022-10-17T17:39:45;18.20;99.90
35240;DHT22;21376;50.954;4.716;2022-10-17T17:42:11;17.80;99.90
35240;DHT22;21376;50.954;4.716;2022-10-17T17:44:36;17.60;99.90
35240;DHT22;21376;50.954;4.716;2022-10-17T17:47:02;17.50;99.90
35240;DHT22;21376;50.954;4.716;2022-10-17T17:49:27;17.50;99.90
35240;DHT22;21376;50.954;4.716;2022-10-17T17:51:53;17.50;99.90
35240;DHT22;21376;50.954;4.716;2022-10-17T17:54:20;17.40;99.90
35240;DHT22;21376;50.954;4.716;2022-10-17T17:56:46;17.30;99.90
35240;DHT22;21376;50.954;4.716;2022-10-17T17:59:11;17.40;99.90
35240;DHT22;21376;50.954;4.716;2022-10-17T18:01:37;17.50;99.90
35240;DHT22;21376;50.954;4.716;2022-10-17T18:04:07;17.60;99.90
35240;DHT22;21376;50.954;4.716;2022-10-17T18:06:37;17.70;99.90
35240;DHT22;21376;50.954;4.716;2022-10-17T18:09:13;17.60;99.90
35240;DHT22;21376;50.954;4.716;2022-10-17T18:11:49;17.50;99.90
35240;DHT22;21376;50.954;4.716;2022-10-17T18:14:15;17.50;99.90
35240;DHT22;21376;50.954;4.716;2022-10-17T18:16:45;17.60;99.90
35240;DHT22;21376;50.954;4.716;2022-10-17T18:19:10;17.60;99.90
35240;DHT22;21376;50.954;4.716;2022-10-17T18:21:36;17.70;99.90
35240;DHT22;21376;50.954;4.716;2022-10-17T18:24:02;17.80;99.90
35240;DHT22;21376;50.954;4.716;2022-10-17T18:26:29;17.60;99.90
35240;DHT22;21376;50.954;4.716;2022-10-17T18:28:54;17.50;99.90
35240;DHT22;21376;50.954;4.716;2022-10-17T18:31:21;17.60;99.90
35240;DHT22;21376;50.954;4.716;2022-10-17T18:33:53;17.60;99.90
35240;DHT22;21376;50.954;4.716;2022-10-17T18:36:19;17.70;99.90
35240;DHT22;21376;50.954;4.716;2022-10-17T18:38:45;17.40;99.90
35240;DHT22;21376;50.954;4.716;2022-10-17T18:41:11;17.30;99.90
35240;DHT22;21376;50.954;4.716;2022-10-17T18:43:38;17.30;99.90
35240;DHT22;21376;50.954;4.716;2022-10-17T18:46:08;17.20;99.90
35240;DHT22;21376;50.954;4.716;2022-10-17T18:48:41;17.00;99.90
35240;DHT22;21376;50.954;4.716;2022-10-17T18:51:12;17.00;99.90
35240;DHT22;21376;50.954;4.716;2022-10-17T18:53:43;17.10;99.90
35240;DHT22;21376;50.954;4.716;2022-10-17T18:56:09;17.10;99.90
35240;DHT22;21376;50.954;4.716;2022-10-17T18:58:38;17.10;99.90
35240;DHT22;21376;50.954;4.716;2022-10-17T19:01:05;17.30;99.90
35240;DHT22;21376;50.954;4.716;2022-10-17T19:03:31;17.40;99.90
35240;DHT22;21376;50.954;4.716;2022-10-17T19:06:02;17.40;99.90
35240;DHT22;21376;50.954;4.716;2022-10-17T19:08:28;17.40;99.90
35240;DHT22;21376;50.954;4.716;2022-10-17T19:10:53;17.30;99.90
35240;DHT22;21376;50.954;4.716;2022-10-17T19:13:19;17.20;99.90
35240;DHT22;21376;50.954;4.716;2022-10-17T19:15:46;17.10;99.90
35240;DHT22;21376;50.954;4.716;2022-10-17T19:18:12;17.00;99.90
35240;DHT22;21376;50.954;4.716;2022-10-17T19:20:38;17.00;99.90
35240;DHT22;21376;50.954;4.716;2022-10-17T19:23:04;16.80;99.90
35240;DHT22;21376;50.954;4.716;2022-10-17T19:25:30;17.00;99.90
35240;DHT22;21376;50.954;4.716;2022-10-17T19:28:02;17.10;99.90
35240;DHT22;21376;50.954;4.716;2022-10-17T19:30:28;17.20;99.90
35240;DHT22;21376;50.954;4.716;2022-10-17T19:32:54;17.00;99.90
35240;DHT22;21376;50.954;4.716;2022-10-17T19:35:22;16.80;99.90
35240;DHT22;21376;50.954;4.716;2022-10-17T19:37:47;16.80;99.90
35240;DHT22;21376;50.954;4.716;2022-10-17T19:40:13;17.00;99.90
35240;DHT22;21376;50.954;4.716;2022-10-17T19:42:42;17.00;99.90
35240;DHT22;21376;50.954;4.716;2022-10-17T19:45:09;17.10;99.90
35240;DHT22;21376;50.954;4.716;2022-10-17T19:47:37;17.00;99.90
35240;DHT22;21376;50.954;4.716;2022-10-17T19:55:12;17.10;99.90
35240;DHT22;21376;50.954;4.716;2022-10-17T19:57:39;17.10;99.90
35240;DHT22;21376;50.954;4.716;2022-10-17T20:02:40;17.10;99.90
35240;DHT22;21376;50.954;4.716;2022-10-17T20:07:40;17.30;99.90
35240;DHT22;21376;50.954;4.716;2022-10-17T20:10:12;17.20;99.90
35240;DHT22;21376;50.954;4.716;2022-10-17T20:12:38;17.10;99.90
35240;DHT22;21376;50.954;4.716;2022-10-17T20:17:50;17.10;99.90
35240;DHT22;21376;50.954;4.716;2022-10-17T20:22:48;17.10;99.90
35240;DHT22;21376;50.954;4.716;2022-10-17T20:25:21;17.20;99.90
35240;DHT22;21376;50.954;4.716;2022-10-17T20:27:53;17.20;99.90
35240;DHT22;21376;50.954;4.716;2022-10-17T20:30:24;17.10;99.90
35240;DHT22;21376;50.954;4.716;2022-10-17T20:32:53;17.10;99.90
35240;DHT22;21376;50.954;4.716;2022-10-17T20:35:32;17.20;99.90
35240;DHT22;21376;50.954;4.716;2022-10-17T20:38:05;17.10;99.90
35240;DHT22;21376;50.954;4.716;2022-10-17T20:40:34;17.10;99.90
35240;DHT22;21376;50.954;4.716;2022-10-17T20:43:00;16.90;99.90
35240;DHT22;21376;50.954;4.716;2022-10-17T20:45:29;17.10;99.90
35240;DHT22;21376;50.954;4.716;2022-10-17T20:50:23;17.10;99.90
35240;DHT22;21376;50.954;4.716;2022-10-17T20:52:55;17.20;99.90
35240;DHT22;21376;50.954;4.716;2022-10-17T20:55:30;17.20;99.90
35240;DHT22;21376;50.954;4.716;2022-10-17T20:57:59;17.30;99.90
35240;DHT22;21376;50.954;4.716;2022-10-17T21:00:28;17.30;99.90
35240;DHT22;21376;50.954;4.716;2022-10-17T21:02:55;17.30;99.90
35240;DHT22;21376;50.954;4.716;2022-10-17T21:07:53;17.10;99.90
35240;DHT22;21376;50.954;4.716;2022-10-17T21:10:21;17.00;99.90
35240;DHT22;21376;50.954;4.716;2022-10-17T21:12:50;17.00;99.90
35240;DHT22;21376;50.954;4.716;2022-10-17T21:17:45;17.00;99.90
35240;DHT22;21376;50.954;4.716;2022-10-17T21:22:41;17.00;99.90
35240;DHT22;21376;50.954;4.716;2022-10-17T21:25:12;17.00;99.90
35240;DHT22;21376;50.954;4.716;2022-10-17T21:27:39;16.90;99.90
35240;DHT22;21376;50.954;4.716;2022-10-17T21:32:34;17.00;99.90
35240;DHT22;21376;50.954;4.716;2022-10-17T21:35:01;17.00;99.90
35240;DHT22;21376;50.954;4.716;2022-10-17T21:37:30;17.00;99.90
35240;DHT22;21376;50.954;4.716;2022-10-17T21:45:23;17.20;99.90